Time;durP1;ratioP1;P1;durP2;ratioP2;P2;SDS_P1;SDS_P2;PMS_P1;PMS_P2;Temp;Humidity;BMP_temperature;BMP_pressure;BME280_temperature;BME280_humidity;BME280_pressure;Samples;Min_cycle;Max_cycle;Signal;HPM_P1;HPM_P2
2022/06/11 00:00:16;;;;;;;0.40;0.40;;;17.00;99.90;;;;;;4991494;28;20184;-82
2022/06/11 00:02:42;;;;;;;0.13;0.13;;;16.90;99.90;;;;;;4989700;28;20653;-83
2022/06/11 00:05:08;;;;;;;0.30;0.30;;;17.00;99.90;;;;;;4973872;28;20261;-82
2022/06/11 00:07:34;;;;;;;0.73;0.40;;;16.90;99.90;;;;;;4972128;28;20218;-83
2022/06/11 00:10:00;;;;;;;0.47;0.47;;;16.80;99.90;;;;;;4973500;28;20653;-83
2022/06/11 00:12:26;;;;;;;0.37;0.37;;;16.60;99.90;;;;;;4991278;28;20198;-82
2022/06/11 00:14:53;;;;;;;1.70;0.67;;;16.50;99.90;;;;;;4972102;28;20628;-83
2022/06/11 00:17:22;;;;;;;0.43;0.30;;;16.50;99.90;;;;;;4991547;28;20310;-82
2022/06/11 00:19:48;;;;;;;0.20;0.20;;;16.50;99.90;;;;;;4989488;28;20275;-82
2022/06/11 00:22:16;;;;;;;0.40;0.40;;;16.50;99.90;;;;;;4973494;28;20645;-82
2022/06/11 00:24:41;;;;;;;0.30;0.30;;;16.60;99.90;;;;;;4972373;28;20207;-83
2022/06/11 00:27:09;;;;;;;0.23;0.20;;;16.70;99.90;;;;;;4990783;28;20195;-83
2022/06/11 00:29:36;;;;;;;0.27;0.27;;;16.70;99.90;;;;;;4989689;28;20599;-82
2022/06/11 00:32:03;;;;;;;0.23;0.23;;;16.80;99.90;;;;;;4989283;28;20199;-82
2022/06/11 00:34:28;;;;;;;0.40;0.40;;;16.70;99.90;;;;;;4971583;28;20223;-82
2022/06/11 00:36:54;;;;;;;0.40;0.40;;;16.30;99.90;;;;;;4973580;28;20180;-82
2022/06/11 00:39:31;;;;;;;1.23;0.70;;;16.10;99.90;;;;;;4972328;28;20203;-83
2022/06/11 00:42:14;;;;;;;0.40;0.40;;;15.80;99.90;;;;;;4969994;28;20188;-82
2022/06/11 00:44:40;;;;;;;0.37;0.30;;;15.70;99.90;;;;;;4971127;28;20203;-83
2022/06/11 00:47:20;;;;;;;0.30;0.30;;;15.70;99.90;;;;;;4973066;28;20194;-83
2022/06/11 00:49:49;;;;;;;0.10;0.10;;;15.70;99.90;;;;;;4972109;28;20678;-83
2022/06/11 00:52:32;;;;;;;0.43;0.30;;;15.90;99.90;;;;;;4990087;28;20194;-84
2022/06/11 00:55:32;;;;;;;0.37;0.37;;;15.90;99.90;;;;;;4989816;28;21032;-82
2022/06/11 00:58:02;;;;;;;0.20;0.20;;;16.00;99.90;;;;;;4967781;28;20637;-82
2022/06/11 01:00:50;;;;;;;0.20;0.20;;;16.20;99.90;;;;;;4985843;28;20594;-83
2022/06/11 01:03:21;;;;;;;0.30;0.30;;;16.20;99.90;;;;;;4969366;28;20184;-83
2022/06/11 01:06:04;;;;;;;0.13;0.13;;;16.30;99.90;;;;;;4970343;28;20219;-83
2022/06/11 01:08:46;;;;;;;0.37;0.37;;;16.30;99.90;;;;;;4986807;28;20618;-82
2022/06/11 01:11:23;;;;;;;0.50;0.50;;;16.40;99.90;;;;;;4987821;28;21316;-83
2022/06/11 01:14:24;;;;;;;0.20;0.20;;;16.40;99.90;;;;;;4969054;28;20947;-83
2022/06/11 01:17:20;;;;;;;0.33;0.33;;;16.20;99.90;;;;;;4969864;28;20184;-82
2022/06/11 01:20:23;;;;;;;0.33;0.33;;;16.30;99.90;;;;;;4945785;28;20191;-83
2022/06/11 01:23:23;;;;;;;0.40;0.40;;;16.30;99.90;;;;;;4969923;28;20214;-82
2022/06/11 01:26:26;;;;;;;0.20;0.20;;;16.40;99.90;;;;;;4970601;28;20551;-83
2022/06/11 01:29:10;;;;;;;0.30;0.30;;;16.40;99.90;;;;;;4986136;28;20191;-83
2022/06/11 01:31:46;;;;;;;1.40;0.50;;;16.30;99.90;;;;;;4968802;28;20191;-83
2022/06/11 01:34:36;;;;;;;0.27;0.27;;;16.40;99.90;;;;;;4968843;28;20763;-83
2022/06/11 01:37:09;;;;;;;0.40;0.40;;;16.40;99.90;;;;;;4985462;28;20225;-83
2022/06/11 01:39:58;;;;;;;0.20;0.20;;;16.40;99.90;;;;;;4985864;28;20219;-83
2022/06/11 01:42:34;;;;;;;0.30;0.30;;;16.50;99.90;;;;;;4970160;28;20184;-82
2022/06/11 01:45:20;;;;;;;0.43;0.43;;;16.20;99.90;;;;;;4986984;28;20211;-83
2022/06/11 01:47:47;;;;;;;0.37;0.37;;;16.00;99.90;;;;;;4969502;28;20237;-83
2022/06/11 01:50:17;;;;;;;0.30;0.30;;;16.10;99.90;;;;;;4969286;28;20557;-83
2022/06/11 01:53:20;;;;;;;0.20;0.20;;;16.20;99.90;;;;;;4968728;28;20869;-82
2022/06/11 01:55:59;;;;;;;0.20;0.20;;;16.30;99.90;;;;;;4968951;28;20330;-84
2022/06/11 01:58:47;;;;;;;0.20;0.20;;;16.20;99.90;;;;;;4985522;28;20245;-83
2022/06/11 02:01:31;;;;;;;0.30;0.30;;;15.80;99.90;;;;;;4988182;28;20196;-82
2022/06/11 02:04:13;;;;;;;0.40;0.30;;;15.90;99.90;;;;;;4968077;28;20197;-84
2022/06/11 02:07:00;;;;;;;0.50;0.47;;;15.90;99.90;;;;;;4969026;28;20227;-83
2022/06/11 02:10:03;;;;;;;0.33;0.20;;;16.00;99.90;;;;;;4986725;28;20206;-83
2022/06/11 02:12:39;;;;;;;0.30;0.20;;;16.10;99.90;;;;;;4968268;28;20234;-83
2022/06/11 02:15:17;;;;;;;0.20;0.20;;;16.20;99.90;;;;;;4985857;28;20250;-83
2022/06/11 02:17:47;;;;;;;0.20;0.20;;;16.30;99.90;;;;;;4986550;28;20183;-82
2022/06/11 02:20:22;;;;;;;0.20;0.20;;;16.40;99.90;;;;;;4968957;28;20657;-83
2022/06/11 02:22:59;;;;;;;0.33;0.33;;;16.50;99.90;;;;;;4985972;28;20928;-83
2022/06/11 02:25:34;;;;;;;0.20;0.20;;;16.60;99.90;;;;;;4985423;28;20261;-81
2022/06/11 02:28:03;;;;;;;0.60;0.60;;;16.70;99.90;;;;;;4968131;28;20286;-83
2022/06/11 02:30:30;;;;;;;0.27;0.27;;;16.60;99.90;;;;;;4983281;28;20219;-83
2022/06/11 02:32:58;;;;;;;0.30;0.30;;;16.60;99.90;;;;;;4986419;28;20274;-83
2022/06/11 02:35:38;;;;;;;1.20;0.70;;;16.40;99.90;;;;;;4969455;28;20969;-84
2022/06/11 02:38:08;;;;;;;0.57;0.57;;;16.30;99.90;;;;;;4968853;28;20666;-83
2022/06/11 02:40:42;;;;;;;0.40;0.40;;;16.10;99.90;;;;;;4985913;28;20624;-83
2022/06/11 02:43:07;;;;;;;1.13;0.30;;;16.30;99.90;;;;;;4986129;28;20552;-83
2022/06/11 02:45:33;;;;;;;0.10;0.10;;;16.50;99.90;;;;;;4968773;28;20218;-83
2022/06/11 02:47:58;;;;;;;0.23;0.23;;;16.70;99.90;;;;;;4969031;28;20248;-83
2022/06/11 02:50:31;;;;;;;0.30;0.30;;;16.80;99.90;;;;;;4986936;28;20198;-83
2022/06/11 02:52:58;;;;;;;0.40;0.40;;;17.00;99.90;;;;;;4967957;28;21627;-83
2022/06/11 02:55:25;;;;;;;0.40;0.40;;;17.00;99.90;;;;;;4968739;28;20207;-83
2022/06/11 02:57:51;;;;;;;0.57;0.30;;;17.10;99.90;;;;;;4983677;28;20206;-83
2022/06/11 03:00:22;;;;;;;0.20;0.20;;;16.90;99.90;;;;;;4986557;28;20187;-82
2022/06/11 03:02:48;;;;;;;0.70;0.30;;;16.70;99.90;;;;;;4982718;28;20187;-83
2022/06/11 03:05:16;;;;;;;0.40;0.40;;;16.60;99.90;;;;;;4971454;28;20217;-83
2022/06/11 03:07:42;;;;;;;0.30;0.30;;;16.60;99.90;;;;;;4988249;28;20196;-83
2022/06/11 03:10:08;;;;;;;0.43;0.37;;;16.60;99.90;;;;;;4973171;28;20315;-82
2022/06/11 03:12:34;;;;;;;0.30;0.30;;;16.60;99.90;;;;;;4971323;28;20562;-83
2022/06/11 03:15:00;;;;;;;0.30;0.30;;;16.80;99.90;;;;;;4971086;28;20215;-83
2022/06/11 03:17:26;;;;;;;0.13;0.13;;;16.90;99.90;;;;;;4972044;28;20267;-83
2022/06/11 03:19:52;;;;;;;0.40;0.30;;;16.90;99.90;;;;;;4989858;28;20257;-83
2022/06/11 03:22:17;;;;;;;0.37;0.37;;;17.00;99.90;;;;;;4971758;28;20231;-83
2022/06/11 03:24:44;;;;;;;0.20;0.20;;;16.90;99.90;;;;;;4989274;28;20274;-82
2022/06/11 03:27:10;;;;;;;0.20;0.20;;;17.00;99.90;;;;;;4988158;28;20222;-83
2022/06/11 03:29:36;;;;;;;0.33;0.33;;;16.80;99.90;;;;;;4972949;28;20199;-83
2022/06/11 03:32:03;;;;;;;0.20;0.20;;;16.80;99.90;;;;;;4972070;28;20195;-83
2022/06/11 03:34:29;;;;;;;0.20;0.20;;;16.90;99.90;;;;;;4972098;28;20302;-82
2022/06/11 03:36:57;;;;;;;0.53;0.40;;;17.00;99.90;;;;;;4971799;28;20187;-83
2022/06/11 03:39:22;;;;;;;1.10;0.63;;;17.10;99.90;;;;;;4972930;28;20223;-83
2022/06/11 03:41:49;;;;;;;0.40;0.40;;;17.10;99.90;;;;;;4988932;28;20230;-83
2022/06/11 03:44:14;;;;;;;0.37;0.20;;;17.20;99.90;;;;;;4989750;28;20215;-83
2022/06/11 03:46:40;;;;;;;0.20;0.20;;;17.20;99.90;;;;;;4970770;28;20523;-84
2022/06/11 03:49:06;;;;;;;0.20;0.20;;;17.20;99.90;;;;;;4972157;28;20343;-83
2022/06/11 03:51:32;;;;;;;0.43;0.20;;;17.30;99.90;;;;;;4971265;28;20207;-83
2022/06/11 03:53:57;;;;;;;0.37;0.20;;;17.30;99.90;;;;;;4971580;28;20224;-83
2022/06/11 03:56:25;;;;;;;0.37;0.37;;;17.30;99.90;;;;;;4986855;28;20566;-83
2022/06/11 03:58:51;;;;;;;1.13;0.70;;;17.30;99.90;;;;;;4988588;28;20184;-83
2022/06/11 04:01:19;;;;;;;0.30;0.30;;;17.30;99.90;;;;;;4971715;28;20203;-82
2022/06/11 04:04:13;;;;;;;0.27;0.27;;;17.40;99.90;;;;;;4988481;28;20199;-84
2022/06/11 04:06:44;;;;;;;0.50;0.50;;;17.50;99.90;;;;;;4966878;28;20263;-82
2022/06/11 04:09:17;;;;;;;0.27;0.27;;;18.60;99.90;;;;;;4970880;28;20184;-82
2022/06/11 04:11:42;;;;;;;0.50;0.50;;;18.70;99.90;;;;;;4971694;28;20816;-83
2022/06/11 04:14:08;;;;;;;0.30;0.30;;;19.80;99.90;;;;;;4971033;28;20225;-83
2022/06/11 04:16:41;;;;;;;0.50;0.50;;;19.20;99.90;;;;;;4969978;28;20187;-84
2022/06/11 04:19:12;;;;;;;0.33;0.30;;;18.70;99.90;;;;;;4971617;28;20237;-83
2022/06/11 04:21:38;;;;;;;0.20;0.20;;;18.50;99.90;;;;;;4981400;28;20190;-84
2022/06/11 04:24:05;;;;;;;0.63;0.63;;;19.40;99.90;;;;;;4966308;28;20192;-83
2022/06/11 04:26:36;;;;;;;0.50;0.50;;;20.40;99.90;;;;;;4983616;28;20223;-82
2022/06/11 04:29:04;;;;;;;0.20;0.20;;;20.70;99.90;;;;;;4980091;28;20271;-83
2022/06/11 04:31:31;;;;;;;0.40;0.40;;;20.90;99.90;;;;;;4969096;28;20708;-82
2022/06/11 04:33:57;;;;;;;0.50;0.50;;;20.80;99.90;;;;;;4985342;28;20215;-83
2022/06/11 04:36:26;;;;;;;0.50;0.50;;;20.50;99.90;;;;;;4987614;28;20211;-83
2022/06/11 04:38:51;;;;;;;0.23;0.23;;;20.20;99.90;;;;;;4968787;28;20191;-83
2022/06/11 04:41:17;;;;;;;0.30;0.30;;;20.20;99.90;;;;;;4986221;28;20196;-82
2022/06/11 04:43:43;;;;;;;0.40;0.40;;;20.00;99.90;;;;;;4987000;28;20192;-82
2022/06/11 04:46:10;;;;;;;0.47;0.47;;;19.80;99.90;;;;;;4985730;28;20216;-82
2022/06/11 04:48:36;;;;;;;0.50;0.50;;;19.50;99.90;;;;;;4994214;28;20191;-83
2022/06/11 04:51:02;;;;;;;1.17;0.80;;;19.30;99.90;;;;;;4978258;28;20206;-82
2022/06/11 04:53:28;;;;;;;0.50;0.50;;;19.10;99.90;;;;;;4995710;28;20230;-81
2022/06/11 04:55:53;;;;;;;1.97;0.80;;;18.90;99.90;;;;;;4978801;28;20230;-83
2022/06/11 04:58:20;;;;;;;0.50;0.50;;;18.60;99.90;;;;;;4979526;28;20196;-84
2022/06/11 05:00:45;;;;;;;2.13;0.60;;;18.30;99.90;;;;;;4978216;28;20195;-82
2022/06/11 05:03:11;;;;;;;1.40;0.93;;;18.30;99.90;;;;;;4977316;28;20536;-82
2022/06/11 05:05:37;;;;;;;0.23;0.23;;;18.20;99.90;;;;;;4975853;28;20212;-82
2022/06/11 05:08:03;;;;;;;0.20;0.20;;;18.20;99.90;;;;;;4993769;28;20389;-82
2022/06/11 05:10:31;;;;;;;0.33;0.30;;;18.20;99.90;;;;;;4976545;28;20202;-83
2022/06/11 05:12:57;;;;;;;0.20;0.20;;;18.40;99.90;;;;;;4974541;28;20293;-83
2022/06/11 05:15:22;;;;;;;0.20;0.20;;;18.20;99.90;;;;;;4975016;28;20235;-82
2022/06/11 05:17:48;;;;;;;0.53;0.53;;;18.40;99.90;;;;;;4992838;28;20219;-81
2022/06/11 05:20:15;;;;;;;0.13;0.13;;;18.60;99.90;;;;;;4977598;28;20256;-83
2022/06/11 05:22:42;;;;;;;0.40;0.40;;;18.70;99.90;;;;;;4976854;28;20206;-83
2022/06/11 05:25:08;;;;;;;0.77;0.77;;;18.80;99.90;;;;;;4977972;28;20212;-82
2022/06/11 05:27:34;;;;;;;0.50;0.50;;;18.90;99.90;;;;;;4995777;28;20196;-83
2022/06/11 05:30:06;;;;;;;0.70;0.70;;;19.00;99.90;;;;;;4996421;28;20251;-82
2022/06/11 05:32:35;;;;;;;0.30;0.30;;;19.20;99.90;;;;;;4978209;28;20431;-82
2022/06/11 05:35:03;;;;;;;0.30;0.30;;;19.40;99.90;;;;;;4994977;28;20668;-82
2022/06/11 05:37:29;;;;;;;0.50;0.50;;;19.60;99.90;;;;;;4994507;28;20222;-82
2022/06/11 05:39:55;;;;;;;0.40;0.40;;;20.00;99.90;;;;;;4991140;28;20227;-83
2022/06/11 05:42:22;;;;;;;0.20;0.20;;;19.90;99.90;;;;;;4994382;28;20194;-82
2022/06/11 05:44:48;;;;;;;1.47;0.87;;;20.40;99.90;;;;;;4993652;28;20246;-82
2022/06/11 05:47:17;;;;;;;0.33;0.33;;;20.70;99.90;;;;;;4991712;28;20635;-84
2022/06/11 05:49:46;;;;;;;0.27;0.27;;;21.10;99.90;;;;;;4974133;28;20266;-81
2022/06/11 05:52:16;;;;;;;0.40;0.40;;;20.60;99.90;;;;;;4993093;28;20423;-82
2022/06/11 05:54:43;;;;;;;0.80;0.80;;;20.90;99.90;;;;;;4970661;28;20310;-83
2022/06/11 05:57:13;;;;;;;0.40;0.40;;;20.70;99.90;;;;;;4984450;28;20545;-84
2022/06/11 05:59:45;;;;;;;2.20;1.40;;;20.70;99.90;;;;;;4968419;28;20637;-84
2022/06/11 06:02:13;;;;;;;0.40;0.40;;;20.70;99.90;;;;;;4985960;28;20183;-84
2022/06/11 06:04:40;;;;;;;1.90;0.80;;;20.70;99.90;;;;;;4966617;28;20211;-85
2022/06/11 06:07:07;;;;;;;0.20;0.20;;;20.50;99.90;;;;;;4981204;28;20205;-84
2022/06/11 06:09:33;;;;;;;0.37;0.37;;;20.70;99.90;;;;;;4986543;28;20227;-81
2022/06/11 06:11:59;;;;;;;0.50;0.50;;;20.80;99.90;;;;;;4971345;28;20223;-82
2022/06/11 06:14:25;;;;;;;0.40;0.40;;;21.20;99.90;;;;;;4968692;28;20243;-81
2022/06/11 06:16:51;;;;;;;0.37;0.37;;;21.40;99.90;;;;;;4972422;28;20184;-81
2022/06/11 06:19:17;;;;;;;1.03;0.80;;;21.10;99.90;;;;;;4990380;28;20188;-82
2022/06/11 06:21:42;;;;;;;0.50;0.50;;;20.80;99.90;;;;;;4970921;28;20214;-81
2022/06/11 06:24:08;;;;;;;0.40;0.40;;;20.80;99.90;;;;;;4986626;28;20631;-80
2022/06/11 06:26:34;;;;;;;1.13;0.33;;;21.30;99.90;;;;;;4973056;28;20247;-80
2022/06/11 06:29:00;;;;;;;0.93;0.57;;;21.70;99.90;;;;;;4972431;28;20193;-81
2022/06/11 06:31:25;;;;;;;0.40;0.40;;;21.90;99.90;;;;;;4987642;28;20214;-81
2022/06/11 06:33:51;;;;;;;0.20;0.20;;;22.20;99.90;;;;;;4971915;28;20219;-81
2022/06/11 06:36:18;;;;;;;0.40;0.40;;;22.40;99.90;;;;;;4990682;28;20199;-82
2022/06/11 06:38:45;;;;;;;2.47;0.60;;;22.30;99.90;;;;;;4988971;28;20740;-81
2022/06/11 06:41:12;;;;;;;0.97;0.57;;;22.30;99.90;;;;;;4990122;28;20279;-81
2022/06/11 06:43:38;;;;;;;0.63;0.63;;;22.30;99.90;;;;;;4989659;28;21073;-81
2022/06/11 06:46:04;;;;;;;0.50;0.50;;;22.40;99.90;;;;;;4990329;28;20218;-81
2022/06/11 06:48:30;;;;;;;0.20;0.20;;;22.40;99.90;;;;;;4990648;28;20255;-80
2022/06/11 06:50:56;;;;;;;0.80;0.60;;;22.60;99.90;;;;;;4989878;28;21177;-81
2022/06/11 06:53:23;;;;;;;0.50;0.50;;;22.70;99.90;;;;;;4988712;28;20274;-80
2022/06/11 06:55:48;;;;;;;0.40;0.40;;;22.90;99.90;;;;;;4986741;28;20217;-80
2022/06/11 06:58:15;;;;;;;0.40;0.40;;;22.90;99.90;;;;;;4987316;28;21216;-80
2022/06/11 07:00:43;;;;;;;0.30;0.30;;;23.10;99.90;;;;;;4987102;28;20184;-80
2022/06/11 07:03:11;;;;;;;0.43;0.43;;;23.10;99.90;;;;;;4986610;28;20180;-80
2022/06/11 07:05:36;;;;;;;0.30;0.30;;;23.30;99.90;;;;;;4986326;28;21039;-80
2022/06/11 07:08:02;;;;;;;1.03;0.43;;;23.40;99.90;;;;;;4968894;28;20187;-80
2022/06/11 07:10:28;;;;;;;0.40;0.40;;;23.50;99.90;;;;;;4989514;28;20188;-80
2022/06/11 07:12:54;;;;;;;0.30;0.30;;;23.70;99.90;;;;;;4968410;28;20179;-80
2022/06/11 07:15:19;;;;;;;0.40;0.40;;;23.90;99.90;;;;;;4968838;28;20219;-80
2022/06/11 07:18:00;;;;;;;1.67;0.77;;;23.60;99.90;;;;;;4969057;28;20198;-80
2022/06/11 07:20:29;;;;;;;0.50;0.50;;;23.80;99.90;;;;;;4987083;28;20172;-80
2022/06/11 07:23:06;;;;;;;0.30;0.30;;;23.90;99.90;;;;;;4986658;28;20207;-80
2022/06/11 07:25:32;;;;;;;1.77;1.53;;;24.20;99.90;;;;;;4985654;28;20324;-80
2022/06/11 07:28:13;;;;;;;0.30;0.30;;;24.50;99.90;;;;;;4966987;28;20211;-80
2022/06/11 07:30:42;;;;;;;0.40;0.40;;;24.60;99.90;;;;;;4967781;28;20194;-80
2022/06/11 07:33:11;;;;;;;0.23;0.23;;;24.80;99.90;;;;;;4966931;28;20188;-79
2022/06/11 07:35:38;;;;;;;0.83;0.70;;;24.90;99.90;;;;;;4983440;28;20215;-80
2022/06/11 07:38:08;;;;;;;0.70;0.40;;;24.90;99.90;;;;;;4985372;28;20552;-79
2022/06/11 07:40:33;;;;;;;0.30;0.30;;;24.80;99.90;;;;;;4982983;28;20190;-80
2022/06/11 07:42:59;;;;;;;0.50;0.50;;;24.80;99.90;;;;;;4965556;28;20183;-80
2022/06/11 07:45:25;;;;;;;0.30;0.30;;;24.80;99.90;;;;;;4984300;28;20216;-80
2022/06/11 07:47:53;;;;;;;1.73;0.70;;;24.90;99.90;;;;;;4966329;28;20195;-80
2022/06/11 07:50:20;;;;;;;0.60;0.60;;;24.90;99.90;;;;;;4968041;28;20191;-80
2022/06/11 07:52:45;;;;;;;0.23;0.20;;;24.80;99.90;;;;;;4987557;28;20187;-80
2022/06/11 07:55:11;;;;;;;0.60;0.60;;;24.60;99.90;;;;;;4987161;28;20742;-79
2022/06/11 07:57:38;;;;;;;0.37;0.37;;;24.40;99.90;;;;;;4970047;28;20246;-79
2022/06/11 08:00:06;;;;;;;1.27;1.00;;;24.40;99.90;;;;;;4986340;28;20208;-80
2022/06/11 08:02:32;;;;;;;2.10;0.67;;;24.30;99.90;;;;;;4987524;28;20203;-81
2022/06/11 08:04:57;;;;;;;0.77;0.50;;;24.40;99.90;;;;;;4988577;28;20249;-81
2022/06/11 08:07:23;;;;;;;0.30;0.30;;;24.50;99.90;;;;;;4971760;28;20203;-82
2022/06/11 08:09:48;;;;;;;0.60;0.27;;;24.50;99.90;;;;;;4970030;28;20219;-81
2022/06/11 08:12:14;;;;;;;0.40;0.40;;;24.60;99.90;;;;;;4969645;28;20187;-82
2022/06/11 08:14:39;;;;;;;0.20;0.20;;;24.60;99.90;;;;;;4978208;28;20223;-81
2022/06/11 08:17:05;;;;;;;0.30;0.30;;;24.70;99.90;;;;;;4976209;28;21127;-81
2022/06/11 08:19:30;;;;;;;1.17;0.70;;;24.70;99.90;;;;;;4976911;28;20201;-81
2022/06/11 08:21:56;;;;;;;0.40;0.40;;;24.70;99.90;;;;;;4965374;28;20188;-83
2022/06/11 08:24:23;;;;;;;0.20;0.20;;;24.70;99.90;;;;;;4961588;28;20212;-83
2022/06/11 08:26:49;;;;;;;0.50;0.43;;;24.80;99.90;;;;;;4987837;28;20184;-82
2022/06/11 08:29:14;;;;;;;0.30;0.30;;;24.90;99.90;;;;;;4988827;28;20190;-82
2022/06/11 08:31:40;;;;;;;0.50;0.47;;;25.10;99.90;;;;;;4984675;28;20242;-82
2022/06/11 08:34:05;;;;;;;0.40;0.40;;;25.20;99.90;;;;;;4986945;28;20208;-82
2022/06/11 08:36:31;;;;;;;0.20;0.20;;;25.30;99.90;;;;;;4971302;28;20176;-83
2022/06/11 08:38:57;;;;;;;0.20;0.20;;;25.40;99.90;;;;;;4974945;28;20203;-83
2022/06/11 08:41:35;;;;;;;0.37;0.30;;;25.50;99.90;;;;;;4990945;28;20532;-82
2022/06/11 08:44:11;;;;;;;0.20;0.20;;;25.60;99.90;;;;;;4981865;28;20262;-80
2022/06/11 08:46:43;;;;;;;0.13;0.13;;;25.70;99.90;;;;;;4984003;28;20263;-81
2022/06/11 08:49:35;;;;;;;0.37;0.37;;;25.70;99.90;;;;;;4968800;28;20187;-82
2022/06/11 08:52:15;;;;;;;0.30;0.30;;;25.20;99.90;;;;;;4968493;28;20184;-83
2022/06/11 08:54:43;;;;;;;0.20;0.20;;;25.50;99.90;;;;;;4984357;28;20227;-83
2022/06/11 08:57:33;;;;;;;0.37;0.37;;;25.30;99.90;;;;;;4983986;28;20192;-86
2022/06/11 09:00:15;;;;;;;0.30;0.30;;;25.70;99.90;;;;;;4985194;28;20194;-85
2022/06/11 09:02:44;;;;;;;0.40;0.40;;;25.90;99.90;;;;;;4966953;28;20188;-85
2022/06/11 09:05:21;;;;;;;0.20;0.20;;;25.90;99.90;;;;;;4980926;28;20278;-85
2022/06/11 09:08:15;;;;;;;0.40;0.40;;;25.90;99.90;;;;;;4966565;28;20203;-85
2022/06/11 09:11:14;;;;;;;0.30;0.27;;;26.10;99.90;;;;;;4967346;28;20216;-84
2022/06/11 09:13:56;;;;;;;0.20;0.20;;;26.20;99.90;;;;;;4985842;28;20208;-83
2022/06/11 09:16:41;;;;;;;0.30;0.30;;;26.40;99.90;;;;;;4971283;28;20200;-83
2022/06/11 09:19:44;;;;;;;0.17;0.17;;;26.20;99.90;;;;;;4989642;28;20207;-84
2022/06/11 09:22:46;;;;;;;1.30;0.50;;;26.20;99.90;;;;;;4969364;28;20211;-84
2022/06/11 09:25:31;;;;;;;1.83;0.57;;;26.40;99.90;;;;;;4986570;28;20207;-83
2022/06/11 09:28:06;;;;;;;1.37;0.30;;;26.70;99.90;;;;;;4969788;28;20214;-83
2022/06/11 09:30:40;;;;;;;1.70;1.60;;;27.00;99.90;;;;;;4987616;28;20187;-82
2022/06/11 09:33:15;;;;;;;0.20;0.20;;;27.10;99.90;;;;;;4969750;28;20194;-82
2022/06/11 09:35:55;;;;;;;0.30;0.30;;;27.40;99.90;;;;;;4987793;28;20199;-82
2022/06/11 09:38:48;;;;;;;0.27;0.27;;;27.60;99.90;;;;;;4969159;28;20704;-84
2022/06/11 09:41:36;;;;;;;0.47;0.47;;;27.30;99.90;;;;;;4971013;28;20540;-82
2022/06/11 09:44:17;;;;;;;0.40;0.40;;;27.40;99.90;;;;;;4988466;28;20211;-83
2022/06/11 09:46:42;;;;;;;0.50;0.50;;;27.40;99.90;;;;;;4988185;28;20175;-82
2022/06/11 09:49:17;;;;;;;0.30;0.30;;;27.80;99.90;;;;;;4971530;28;20192;-84
2022/06/11 09:52:07;;;;;;;0.27;0.27;;;27.80;99.90;;;;;;4987569;28;20544;-84
2022/06/11 09:54:54;;;;;;;0.47;0.47;;;27.90;99.90;;;;;;4988578;28;20302;-84
2022/06/11 09:57:32;;;;;;;0.20;0.20;;;27.90;99.90;;;;;;4972329;28;20180;-85
2022/06/11 10:00:03;;;;;;;0.30;0.30;;;27.80;99.90;;;;;;4971847;28;20195;-82
2022/06/11 10:02:40;;;;;;;0.20;0.20;;;27.70;99.90;;;;;;4989544;28;20191;-82
2022/06/11 10:05:19;;;;;;;1.23;0.50;;;27.80;99.90;;;;;;4971219;28;20731;-81
2022/06/11 10:07:51;;;;;;;0.40;0.32;;;28.00;99.90;;;;;;4989778;28;20203;-85
2022/06/11 10:10:25;;;;;;;0.20;0.20;;;28.20;99.90;;;;;;4971706;28;20302;-81
2022/06/11 10:13:06;;;;;;;2.03;0.40;;;28.40;99.90;;;;;;4989130;28;20202;-81
2022/06/11 10:15:34;;;;;;;0.30;0.30;;;28.70;99.90;;;;;;4989316;28;20211;-81
2022/06/11 10:18:21;;;;;;;0.20;0.20;;;28.80;99.90;;;;;;4972116;28;20644;-81
2022/06/11 10:21:12;;;;;;;0.30;0.30;;;28.80;99.90;;;;;;4986292;28;20234;-81
2022/06/11 10:23:47;;;;;;;0.20;0.20;;;29.00;99.90;;;;;;4985250;28;20185;-81
2022/06/11 10:26:25;;;;;;;0.30;0.30;;;28.70;99.90;;;;;;4968987;28;20242;-81
2022/06/11 10:29:06;;;;;;;0.50;0.45;;;28.50;99.90;;;;;;4987569;28;20187;-82
2022/06/11 10:31:37;;;;;;;0.20;0.20;;;28.80;99.90;;;;;;4988343;28;20201;-81
2022/06/11 10:34:17;;;;;;;0.75;0.50;;;29.00;99.90;;;;;;4967153;28;20255;-81
2022/06/11 10:36:52;;;;;;;0.20;0.20;;;29.30;99.90;;;;;;4985988;28;20269;-81
2022/06/11 10:39:42;;;;;;;0.30;0.30;;;29.50;99.90;;;;;;4968044;28;20194;-81
2022/06/11 10:42:18;;;;;;;0.20;0.20;;;29.50;99.90;;;;;;4987239;28;20763;-81
2022/06/11 10:44:50;;;;;;;0.22;0.22;;;29.30;99.90;;;;;;4986391;28;20222;-82
2022/06/11 10:47:28;;;;;;;0.80;0.68;;;29.30;99.90;;;;;;4986535;28;20260;-81
2022/06/11 10:50:07;;;;;;;0.30;0.30;;;28.80;99.90;;;;;;4986726;28;21113;-81
2022/06/11 10:52:45;;;;;;;0.40;0.40;;;28.50;99.90;;;;;;4987433;28;20195;-81
2022/06/11 10:55:21;;;;;;;0.10;0.10;;;28.90;99.90;;;;;;4967254;28;20219;-81
2022/06/11 10:57:50;;;;;;;0.32;0.30;;;29.00;99.90;;;;;;4984202;28;20187;-82
2022/06/11 11:00:45;;;;;;;0.30;0.30;;;28.90;99.90;;;;;;4967909;28;20238;-81
2022/06/11 11:03:39;;;;;;;0.30;0.30;;;29.00;99.90;;;;;;4967490;28;20279;-81
2022/06/11 11:06:09;;;;;;;0.10;0.10;;;28.90;99.90;;;;;;4985845;28;20234;-84
2022/06/11 11:08:36;;;;;;;1.33;1.23;;;29.30;99.90;;;;;;4986807;28;20254;-82
2022/06/11 11:11:09;;;;;;;0.30;0.30;;;29.60;99.90;;;;;;4991017;28;20184;-83
2022/06/11 11:13:40;;;;;;;0.80;0.32;;;29.90;99.90;;;;;;4991635;28;20234;-83
2022/06/11 11:16:11;;;;;;;0.30;0.30;;;30.00;99.90;;;;;;4992673;28;20227;-82
2022/06/11 11:18:49;;;;;;;0.40;0.40;;;29.90;99.90;;;;;;4974547;28;20180;-83
2022/06/11 11:21:23;;;;;;;0.30;0.30;;;30.10;99.90;;;;;;4991203;28;20184;-82
2022/06/11 11:23:51;;;;;;;1.27;0.38;;;30.20;99.90;;;;;;4988790;28;20191;-82
2022/06/11 11:26:39;;;;;;;0.20;0.20;;;30.40;99.90;;;;;;4974785;28;20610;-82
2022/06/11 11:29:32;;;;;;;0.22;0.22;;;30.60;99.90;;;;;;4993709;28;20215;-85
2022/06/11 11:32:06;;;;;;;0.20;0.20;;;30.90;99.90;;;;;;4991516;28;20215;-81
2022/06/11 11:34:41;;;;;;;1.45;0.32;;;30.80;99.90;;;;;;4972566;28;20249;-81
2022/06/11 11:37:13;;;;;;;0.47;0.47;;;30.80;99.90;;;;;;4986945;28;21050;-85
2022/06/11 11:39:57;;;;;;;0.38;0.38;;;31.10;99.90;;;;;;4984471;28;20180;-83
2022/06/11 11:42:34;;;;;;;0.30;0.30;;;30.70;99.90;;;;;;4987037;28;20695;-84
2022/06/11 11:45:23;;;;;;;0.20;0.20;;;31.00;99.90;;;;;;4972670;28;20199;-82
2022/06/11 11:47:52;;;;;;;0.40;0.38;;;31.20;99.90;;;;;;4989882;28;20203;-83
2022/06/11 11:50:36;;;;;;;0.20;0.20;;;31.30;99.90;;;;;;4973307;28;20219;-82
2022/06/11 11:53:11;;;;;;;0.30;0.30;;;31.70;99.90;;;;;;4973427;28;20683;-83
2022/06/11 11:55:41;;;;;;;0.35;0.35;;;32.00;99.90;;;;;;4972765;28;20217;-84
2022/06/11 11:58:21;;;;;;;0.30;0.30;;;31.80;99.90;;;;;;4991349;28;20573;-83
2022/06/11 12:00:54;;;;;;;0.68;0.50;;;31.70;99.90;;;;;;4990787;28;20183;-83
2022/06/11 12:03:25;;;;;;;0.50;0.50;;;31.50;99.90;;;;;;4990048;28;20176;-84
2022/06/11 12:05:57;;;;;;;0.30;0.30;;;31.50;99.90;;;;;;4990239;28;20662;-83
2022/06/11 12:08:29;;;;;;;0.20;0.20;;;31.20;99.90;;;;;;4990912;28;20339;-84
2022/06/11 12:11:00;;;;;;;0.45;0.45;;;30.80;99.90;;;;;;4990601;28;20206;-84
2022/06/11 12:13:42;;;;;;;0.32;0.32;;;30.50;99.90;;;;;;4988097;28;20524;-83
2022/06/11 12:16:21;;;;;;;0.40;0.40;;;30.70;99.90;;;;;;4990248;28;20195;-82
2022/06/11 12:18:53;;;;;;;0.43;0.43;;;30.80;99.90;;;;;;4990338;28;20175;-83
2022/06/11 12:21:28;;;;;;;0.30;0.30;;;30.90;99.90;;;;;;4990885;28;20315;-82
2022/06/11 12:24:00;;;;;;;3.83;0.40;;;30.50;99.90;;;;;;4990405;28;20269;-83
2022/06/11 12:26:30;;;;;;;0.30;0.30;;;30.30;99.90;;;;;;4972464;28;20268;-83
2022/06/11 12:29:05;;;;;;;2.15;1.65;;;30.30;99.90;;;;;;4990923;28;20522;-83
2022/06/11 12:31:31;;;;;;;0.63;0.52;;;29.90;99.90;;;;;;4989848;28;20179;-83
2022/06/11 12:33:58;;;;;;;0.30;0.30;;;29.70;99.90;;;;;;4989814;28;20239;-83
2022/06/11 12:36:46;;;;;;;0.30;0.30;;;30.00;99.90;;;;;;4988641;28;20184;-83
2022/06/11 12:39:28;;;;;;;0.28;0.28;;;30.30;99.90;;;;;;4971237;28;20255;-83
2022/06/11 12:42:17;;;;;;;0.20;0.20;;;30.50;99.90;;;;;;4990149;28;20191;-82
2022/06/11 12:45:17;;;;;;;0.25;0.25;;;30.20;99.90;;;;;;4988880;28;20199;-83
2022/06/11 12:48:13;;;;;;;0.20;0.20;;;30.40;99.90;;;;;;4970491;28;20195;-83
2022/06/11 12:50:53;;;;;;;0.57;0.43;;;30.50;99.90;;;;;;4960401;28;20254;-83
2022/06/11 12:53:58;;;;;;;0.40;0.40;;;30.40;99.90;;;;;;4988569;28;20188;-83
2022/06/11 12:56:30;;;;;;;0.45;0.40;;;30.50;99.90;;;;;;4971548;28;20176;-83
2022/06/11 12:59:15;;;;;;;0.40;0.40;;;30.40;99.90;;;;;;4987673;28;20168;-82
2022/06/11 13:01:48;;;;;;;0.30;0.30;;;30.70;99.90;;;;;;4986107;28;20191;-82
2022/06/11 13:04:51;;;;;;;0.30;0.30;;;31.00;99.90;;;;;;4970433;28;20204;-83
2022/06/11 13:07:41;;;;;;;0.30;0.30;;;30.50;99.90;;;;;;4987423;28;20195;-83
2022/06/11 13:10:25;;;;;;;0.45;0.40;;;30.90;99.90;;;;;;4988951;28;21113;-83
2022/06/11 13:13:09;;;;;;;0.20;0.20;;;31.20;99.90;;;;;;4970636;28;20270;-82
2022/06/11 13:15:50;;;;;;;0.30;0.30;;;31.50;99.90;;;;;;4987374;28;20283;-82
2022/06/11 13:18:50;;;;;;;1.85;0.32;;;31.70;99.90;;;;;;4988019;28;20180;-82